07/02 --> 16/02: circulación inusual, eventos generalizados de lluvia y templado

Avatar de Usuario
Diecha
Mensajes: 14747
Registrado: Jue Ago 25, 2011 9:31 pm
Ubicación: Lomas de Zamora

Re: 07/02 --> 16/02: eventos generalizados de lluvia y templado

Mensaje por Diecha » Lun Feb 15, 2021 11:16 pm

- Tandil 23 hs: SAZT 160200Z 20014KT 9999 SCT015 17/15 Q1011
- Mar del Plata 23 hs: SAZM 160200Z 00000KT 7000 -RA SCT007 BKN024 OVC070 20/19 Q1009

Imagen

Avatar de Usuario
Santiago Linari
Mensajes: 8615
Registrado: Sab Dic 29, 2012 4:28 pm
Ubicación: Challao, Mendoza

Re: 07/02 --> 16/02: eventos generalizados de lluvia y templado

Mensaje por Santiago Linari » Lun Feb 15, 2021 11:17 pm

Esto fue anoche :o





Sigue lloviendo aunque con menos intensidad.

Agregado después de 4 minutos 19 segundos:
No dije nada. Se largó con todo.
¡Oops!

Algo salió mal

Avatar de Usuario
Diecha
Mensajes: 14747
Registrado: Jue Ago 25, 2011 9:31 pm
Ubicación: Lomas de Zamora

Re: 07/02 --> 16/02: eventos generalizados de lluvia y templado

Mensaje por Diecha » Lun Feb 15, 2021 11:24 pm

- Mendoza 23 hs: SAME 160200Z 14009KT 9999 TS SCT035 FEW045 18/16 Q1018
- San Rafael 23 hs: SAMR 160200Z 00000KT 9999 SCT025 15/11 Q1020
- Malargüe 23 hs: SAMM 160200Z 32005KT 9999 SCT015 FEW040CB 12/10 Q1023

Imagen

Avatar de Usuario
Santiago Linari
Mensajes: 8615
Registrado: Sab Dic 29, 2012 4:28 pm
Ubicación: Challao, Mendoza

Re: 07/02 --> 16/02: eventos generalizados de lluvia y templado

Mensaje por Santiago Linari » Lun Feb 15, 2021 11:39 pm

Sigue diluviando.
Espero que Mza Observatorio esté teniendo esta cantidad de precipitación.
¡Oops!

Algo salió mal

Avatar de Usuario
Diecha
Mensajes: 14747
Registrado: Jue Ago 25, 2011 9:31 pm
Ubicación: Lomas de Zamora

Re: 07/02 --> 16/02: eventos generalizados de lluvia y templado

Mensaje por Diecha » Lun Feb 15, 2021 11:53 pm


Avatar de Usuario
Santiago Linari
Mensajes: 8615
Registrado: Sab Dic 29, 2012 4:28 pm
Ubicación: Challao, Mendoza

Re: 07/02 --> 16/02: eventos generalizados de lluvia y templado

Mensaje por Santiago Linari » Mar Feb 16, 2021 12:01 am

Sigue lloviendo con todo!! No aflojó nunca.
Cómo me gustaría tener espacio para poner un pluviómetro.
Según el radar es un área muy puntual. Pero no sé qué tan bien está viendo la precipitación (tiene errores).

Imagen
¡Oops!

Algo salió mal

Avatar de Usuario
Diecha
Mensajes: 14747
Registrado: Jue Ago 25, 2011 9:31 pm
Ubicación: Lomas de Zamora

Re: 07/02 --> 16/02: eventos generalizados de lluvia y templado

Mensaje por Diecha » Mar Feb 16, 2021 12:06 am


Avatar de Usuario
Diecha
Mensajes: 14747
Registrado: Jue Ago 25, 2011 9:31 pm
Ubicación: Lomas de Zamora

Re: 07/02 --> 16/02: eventos generalizados de lluvia y templado

Mensaje por Diecha » Mar Feb 16, 2021 1:16 am

- Tandil 01 hs: SAZT 160400Z 20014KT 9999 SCT015 16/14 Q1011
- Mar del Plata 01 hs: SAZM 160400Z 20004KT 2500 +RA OVC008 BKN025 20/20 Q1008

Imagen
Imagen

Avatar de Usuario
Diecha
Mensajes: 14747
Registrado: Jue Ago 25, 2011 9:31 pm
Ubicación: Lomas de Zamora

Re: 07/02 --> 16/02: eventos generalizados de lluvia y templado

Mensaje por Diecha » Mar Feb 16, 2021 4:16 am

- Tandil 04 hs: SAZT 160700Z 20013G25KT 9999 FEW015 15/13 Q1010 (ráfaga de 46 Km/h)
- Mar del Plata 04 hs: SAZM 160700Z 20005KT 9999 BKN006 OVC011 20/19 Q1007

Imagen

Avatar de Usuario
Ernest
Mensajes: 12016
Registrado: Vie Jul 17, 2009 10:54 pm
Ubicación: Balvanera, CABA

Re: 07/02 --> 16/02: eventos generalizados de lluvia y templado

Mensaje por Ernest » Mar Feb 16, 2021 9:57 am

Mañana mayormente nublada de estratocumulos que corren del SO en Savio, 20 grados siendo casi las 10 pero con las ráfagas de viento moderado se siente fresco.

PP en 24 horas.
MDQ 43 mm
Bastante decepcionante la cosa por las estaciones mendocinas.
pp24 (2).gif
Did you want to talk about the weather, or were you just making chitchat?

Twitter: @ErnestoMeteo

Responder